Date,TemperatureHighF,TemperatureAvgF,TemperatureLowF,DewpointHighF,DewpointAvgF,DewpointLowF,HumidityHigh,HumidityAvg,HumidityLow,PressureMaxIn,PressureMinIn,WindSpeedMaxMPH,WindSpeedAvgMPH,GustSpeedMaxMPH,PrecipitationSumIn
2013-1-15,35,34,33,34,32,30,98,89,84,30.11,30.07,2,1,0,0.00
2013-1-16,40,36,31,32,-50,-59,98,5,18,30.09,29.62,4,1,0,0.00
2013-1-17,42,36,29,36,-2,-58,95,48,12,29.94,29.73,9,2,0,0.34
2013-1-18,28,24,19,23,12,6,80,61,45,30.32,29.87,11,2,0,0.00
2013-1-19,46,36,24,36,28,15,85,72,59,30.21,29.75,6,2,0,0.02
2013-1-20,51,41,27,37,30,12,92,68,39,29.84,29.49,11,4,0,0.00
2013-1-21,32,26,19,26,15,0,98,65,31,29.92,29.63,5,0,0,0.00
2013-1-22,22,17,10,14,2,-8,84,52,27,29.97,29.63,14,4,0,0.00
2013-1-23,18,12,7,5,-2,-6,70,56,39,30.03,29.94,10,2,0,0.00
2013-1-24,22,12,5,4,0,-4,80,58,39,30.17,29.92,11,2,0,0.00
2013-1-25,26,16,7,20,7,2,98,69,38,30.22,29.88,4,0,0,0.00
2013-1-26,25,18,12,14,10,6,92,71,54,30.17,29.85,16,2,0,0.00
2013-1-27,32,21,10,16,11,6,98,67,36,30.34,30.15,7,1,0,0.00
2013-1-28,37,30,20,28,-18,-59,98,36,1,30.33,29.82,6,1,0,0.00
2013-1-29,43,40,37,25,-42,-55,55,6,1,30.02,29.82,3,1,0,0.23
2013-1-30,65,56,41,-38,-43,-52,1,1,1,29.96,29.24,6,2,0,0.03
2013-1-31,68,47,27,38,-4,-51,77,34,1,29.56,28.89,20,8,0,1.35
2013-2-1,31,26,20,20,13,8,80,60,44,30.01,29.56,15,4,0,0.00
2013-2-2,31,23,16,23,7,-64,98,60,6,30.10,29.88,7,2,0,0.00
2013-2-3,32,24,18,26,4,-66,97,58,5,29.88,29.59,3,0,0,0.01
2013-2-4,30,24,20,21,14,10,91,66,46,29.82,29.60,10,2,0,0.00
2013-2-5,31,26,21,29,24,15,98,93,71,29.83,29.75,3,0,0,0.00
2013-2-6,39,31,25,33,19,-1,98,63,28,30.20,29.75,9,1,0,0.03
2013-2-7,34,25,19,23,11,4,89,56,36,30.36,30.17,7,1,0,0.00
2013-2-8,38,31,27,28,-28,-61,98,33,1,30.20,29.44,26,6,0,0.00
2013-2-9,29,25,16,22,-11,-63,86,42,1,30.09,29.54,19,6,0,0.00
2013-2-10,40,25,12,26,7,-2,90,50,18,30.31,30.10,6,1,0,0.03
2013-2-11,53,43,28,32,-20,-53,98,34,1,30.18,29.50,8,0,0,0.35
2013-2-12,47,39,35,37,22,-55,98,69,1,29.80,29.53,14,5,0,0.00
2013-2-13,46,36,26,34,27,-56,98,77,1,29.79,29.52,5,0,0,0.00
2013-2-14,45,37,29,36,16,-58,98,62,1,29.84,29.55,6,1,0,0.03
2013-2-15,53,41,33,43,35,-14,98,82,11,29.86,29.76,6,1,0,0.00
2013-2-16,40,33,27,39,8,-58,98,61,1,29.81,29.55,10,3,0,0.02
2013-2-17,30,23,14,21,8,3,78,54,34,29.73,29.42,14,6,0,0.00
2013-2-18,33,23,14,15,9,5,69,55,40,30.05,29.72,13,2,0,0.00
2013-2-19,48,39,26,46,2,-54,98,51,1,30.05,29.47,16,2,0,0.30
2013-2-20,37,29,22,33,20,-5,98,70,16,29.75,29.50,14,4,0,0.00
2013-2-21,35,25,21,21,18,15,89,72,55,30.13,29.72,14,2,0,0.00
2013-2-22,40,30,21,34,27,20,98,88,62,30.25,30.08,14,0,0,0.00
2013-2-23,39,36,34,34,-26,-56,98,32,1,30.14,29.66,5,1,0,0.12
2013-2-24,41,37,31,40,-18,-55,98,38,1,29.78,29.56,8,2,0,0.01
2013-2-25,46,37,30,34,32,30,98,84,63,30.10,29.77,12,2,0,0.00
2013-2-26,45,37,30,39,33,11,98,88,38,30.17,29.82,4,0,0,0.08
2013-2-27,45,41,34,-6,-52,-57,17,0,3,29.81,29.34,12,3,0,1.21
2013-2-28,50,42,36,48,-3,-56,98,47,17,29.47,29.36,3,0,0,0.01
2013-3-1,45,38,33,38,33,16,98,84,42,29.61,29.41,9,2,0,0.01
2013-3-2,40,34,29,34,31,29,98,89,74,29.61,29.51,7,1,0,0.00
2013-3-3,36,30,27,33,27,23,98,87,68,29.56,29.48,8,2,0,0.00
2013-3-4,42,32,26,29,26,22,92,77,57,29.71,29.54,14,3,0,0.00
2013-3-5,47,37,28,35,31,26,98,80,59,29.88,29.70,17,2,0,0.00
2013-3-6,42,38,35,41,37,34,98,97,85,29.87,29.74,23,6,0,0.00
2013-3-7,37,33,31,36,-4,-58,98,49,1,29.90,29.74,23,8,0,0.01
2013-3-8,38,34,30,33,-41,-60,90,16,1,30.01,29.80,11,1,0,0.13
2013-3-9,54,40,31,34,31,28,98,73,41,30.19,29.99,9,2,0,0.04
2013-3-10,51,38,28,43,31,-5,98,77,22,30.24,30.15,4,0,0,0.00
2013-3-11,55,45,36,52,36,-54,98,84,5,30.17,29.97,8,1,0,0.00
2013-3-12,57,51,41,-43,-46,-53,0,0,100,29.97,29.52,8,2,0,1.67
2013-3-13,50,40,32,38,5,-58,98,45,1,29.73,29.61,9,1,0,0.00
2013-3-14,37,31,26,34,20,12,98,64,42,29.74,29.64,13,4,0,0.00
2013-3-15,43,33,23,38,24,13,98,70,47,29.78,29.54,11,3,0,0.00
2013-3-16,40,33,29,33,22,-8,98,68,17,29.75,29.59,10,1,0,0.01
2013-3-17,38,31,25,24,12,-62,91,52,1,30.15,29.74,8,1,0,0.00
2013-3-18,37,29,21,20,14,10,71,54,39,30.26,30.10,8,1,0,0.00
2013-3-22,42,36,26,29,26,24,90,69,53,29.69,29.56,10,3,0,0.00
2013-3-23,46,37,30,30,27,23,88,68,45,29.75,29.59,12,2,0,0.00
2013-3-24,46,36,27,31,27,22,92,70,55,29.77,29.55,11,1,0,0.00
2013-3-25,44,38,33,36,33,30,98,82,65,29.57,29.28,14,2,0,0.00
2013-3-26,51,41,34,36,33,28,98,74,49,29.69,29.41,6,1,0,0.00
2013-3-27,52,41,30,34,30,28,93,69,42,29.79,29.66,7,0,0,0.00
2013-3-28,50,41,32,43,37,31,98,88,64,29.94,29.77,11,1,0,0.00
2013-3-29,56,45,34,41,36,33,98,75,44,29.98,29.87,7,1,0,0.00
2013-3-30,58,45,32,39,31,24,98,64,27,30.01,29.89,7,0,0,0.00
2013-3-31,56,46,33,48,28,-50,98,60,1,30.00,29.51,9,1,0,0.15
2013-4-1,61,48,36,52,0,-50,98,40,1,29.69,29.42,14,2,0,0.02
2013-4-3,46,39,32,20,17,14,60,41,30,30.11,29.91,12,4,0,0.00
2013-4-4,57,39,25,39,26,16,98,63,31,30.23,29.94,4,1,0,0.00
2013-4-5,62,48,38,40,31,20,98,59,21,29.93,29.54,15,2,0,0.00
2013-4-6,53,40,31,33,17,-4,91,45,9,30.17,29.80,10,2,0,0.00
2013-4-7,57,46,34,51,40,-4,98,84,12,30.16,29.86,10,2,0,0.00
2013-4-8,48,45,43,-48,-50,-51,1,1,1,29.91,29.82,0,0,0,0.00
2013-4-9,79,69,58,48,47,45,69,46,32,29.86,29.76,7,1,0,0.00
2013-4-10,71,59,50,65,30,-47,98,59,1,29.83,29.68,10,1,0,0.23
2013-4-11,59,53,45,57,5,-47,98,47,1,29.93,29.66,8,1,0,0.01
2013-4-12,45,42,38,44,-11,-54,98,40,1,29.92,29.57,8,2,0,0.47
2013-4-13,58,46,37,47,5,-55,98,46,1,29.81,29.58,8,0,0,0.08
2013-4-14,58,49,41,45,37,31,98,66,40,30.07,29.79,14,2,0,0.00
2013-4-15,65,50,36,42,37,31,93,65,38,30.25,30.08,6,1,0,0.00
2013-4-16,68,53,40,60,40,-44,98,80,1,30.24,29.97,7,1,0,0.00
2013-4-17,68,58,50,50,27,-46,98,45,1,30.17,29.96,12,2,0,0.01
2013-4-18,64,53,43,54,41,-14,98,69,8,30.24,29.98,7,1,0,0.00
2013-4-19,76,63,52,71,-15,-45,98,19,1,29.97,29.52,14,2,0,0.00
2013-4-20,64,53,43,45,4,-50,71,30,1,30.12,29.51,9,1,0,0.22
2013-4-21,56,43,32,38,29,24,93,59,34,30.50,30.15,14,1,0,0.00
2013-4-22,61,46,35,45,37,30,98,74,41,30.55,30.38,6,0,0,0.00
2013-4-23,47,41,36,47,30,-53,98,81,1,30.38,29.95,12,2,0,0.00
2013-4-24,76,55,41,58,12,-52,98,37,1,29.96,29.70,7,0,0,0.00
2013-4-25,68,56,46,44,19,-46,83,39,1,30.13,29.71,7,1,0,0.00
2013-4-26,71,54,38,42,38,34,98,60,30,30.29,30.12,7,1,0,0.00
2013-4-27,72,56,42,44,34,18,90,50,15,30.30,30.14,9,1,0,0.00
2013-4-28,75,57,42,52,31,-52,98,52,1,30.20,30.07,6,1,0,0.00
2013-4-29,61,55,49,58,50,33,98,84,52,30.13,30.06,3,0,0,0.00
2013-4-30,75,59,47,51,41,24,98,60,16,30.21,30.07,5,0,0,0.00
2013-5-1,76,58,40,52,42,31,98,60,25,30.36,30.19,6,1,0,0.00
2013-5-2,82,63,43,52,41,-51,98,54,1,30.36,30.17,5,1,0,0.00
2013-5-3,75,58,47,54,46,-49,98,68,1,30.34,30.21,7,1,0,0.00
2013-5-4,79,58,43,54,19,-51,98,44,1,30.25,30.09,12,1,0,0.00
2013-5-5,72,54,41,54,14,-53,98,44,1,30.18,30.08,8,1,0,0.00
2013-5-6,78,59,43,61,17,-51,98,45,1,30.14,30.02,3,0,0,0.00
2013-5-7,83,65,46,69,27,-49,98,47,1,30.06,29.96,5,1,0,0.00
2013-5-8,67,62,57,51,-35,-43,62,2,1,30.01,29.86,7,0,0,0.61
2013-5-9,68,60,56,42,-37,-43,44,3,1,29.91,29.75,3,0,0,0.55
2013-5-10,86,70,57,68,21,-43,98,41,11,29.86,29.75,6,1,0,0.00
2013-5-11,66,64,59,54,-36,-42,80,2,6,29.76,29.56,6,1,0,0.35
2013-5-12,74,63,48,60,7,-43,68,28,27,29.76,29.50,7,1,0,0.06
2013-5-13,63,49,39,43,37,33,98,69,34,29.95,29.76,11,1,0,0.00
2013-5-14,65,50,35,43,34,22,98,58,28,29.97,29.87,7,0,0,0.00
2013-5-15,70,55,40,65,23,-53,98,59,1,29.95,29.53,4,0,0,0.01
2013-5-16,90,70,56,63,18,-43,98,31,1,29.70,29.55,6,1,0,0.00
2013-5-17,72,61,53,53,49,45,98,65,42,30.08,29.70,12,1,0,0.00
2013-5-18,78,60,47,60,53,9,98,81,15,30.19,30.07,7,1,0,0.00
2013-5-19,61,58,55,47,-30,-43,72,9,1,30.20,30.03,3,0,0,0.28
2013-5-20,88,71,61,80,6,-40,98,33,1,30.03,29.83,3,0,0,0.01
2013-5-21,96,78,67,82,27,-37,98,42,1,29.86,29.70,4,0,0,0.00
2013-5-22,86,69,59,84,3,-42,98,33,1,29.83,29.71,2,0,0,0.03
2013-5-23,77,69,66,74,-27,-38,98,7,1,29.78,29.64,6,0,0,2.44
2013-5-24,68,58,45,-36,-42,-50,1,1,1,29.75,29.53,17,2,0,0.48
2013-5-25,50,45,42,45,-18,-52,98,29,1,29.79,29.68,7,3,0,0.82
2013-5-26,66,53,43,52,46,36,98,79,50,30.04,29.72,14,2,0,0.00
2013-5-27,82,62,42,56,47,42,98,67,25,30.11,29.97,6,1,0,0.00
2013-5-28,75,59,46,65,22,-49,98,49,1,30.10,30.00,3,0,0,0.19
2013-5-29,87,70,58,83,2,-42,98,30,1,30.01,29.88,2,0,0,0.02
2013-5-30,100,81,65,78,33,-38,98,42,1,30.01,29.91,5,0,0,0.00
2013-5-31,103,82,68,80,72,64,98,76,32,30.01,29.86,4,1,0,0.00
2013-6-1,99,81,67,82,66,-37,98,73,1,29.91,29.78,6,1,0,0.00
2013-6-2,94,78,67,84,42,-37,98,57,1,29.80,29.64,6,0,0,0.01
2013-6-3,85,72,62,80,15,-37,98,44,1,29.76,29.67,9,1,0,1.27
2013-6-4,82,65,50,61,54,48,98,72,33,29.98,29.76,7,0,0,0.00
2013-6-5,84,66,51,60,55,50,98,73,37,30.08,29.97,4,0,0,0.00
2013-6-6,78,64,53,70,16,-45,98,42,1,30.04,29.94,3,0,0,0.00
2013-6-8,80,71,61,77,55,-40,98,76,22,29.93,29.77,0,0,0,0.00
2013-6-9,88,71,58,70,20,-42,98,37,37,30.07,29.95,4,0,0,0.00
2013-6-10,76,66,61,76,0,-40,98,30,6,30.07,29.77,3,0,0,1.08
2013-6-11,85,71,64,80,20,-39,98,48,39,29.76,29.45,7,1,0,0.50
2013-6-12,79,67,59,66,62,58,98,85,56,29.72,29.52,9,1,0,0.00
2013-6-13,61,59,54,59,0,-44,98,39,1,29.71,29.40,11,1,0,1.17
2013-6-14,78,62,54,73,15,-45,98,46,1,29.74,29.40,14,1,0,0.68
2013-6-15,87,70,56,66,23,-43,98,38,5,29.87,29.73,4,0,0,0.00
2013-6-16,85,71,57,76,65,56,98,83,47,29.88,29.62,7,0,0,0.00
2013-6-17,91,75,64,84,36,-38,98,53,11,29.81,29.70,2,0,0,0.40
2013-6-18,86,71,61,82,6,-40,98,34,1,29.81,29.68,5,0,0,0.66
2013-6-19,79,66,56,64,27,-43,98,48,1,30.06,29.77,9,1,0,0.01
2013-6-20,85,68,54,70,59,-2,98,77,8,30.15,30.05,6,0,0,0.00
2013-6-21,88,71,58,76,66,57,98,86,56,30.18,30.10,6,1,0,0.00
2013-6-22,88,73,58,74,67,58,98,84,51,30.15,30.01,6,0,0,0.00
2013-6-23,95,78,64,86,74,63,98,90,57,30.08,29.93,6,0,0,0.00
2013-6-24,97,80,70,89,54,-35,98,64,1,29.96,29.80,5,0,0,0.07
2013-6-25,95,80,68,90,40,-36,98,55,11,29.87,29.65,9,1,0,0.00
2013-6-26,85,77,73,84,64,-33,98,86,1,29.72,29.63,5,0,0,0.08
2013-6-27,89,77,72,88,19,-34,98,44,1,29.71,29.47,4,0,0,0.60
2013-6-28,89,79,72,89,33,-32,98,56,1,29.46,29.33,6,2,0,0.02
2013-6-29,89,77,70,86,26,-35,98,49,1,29.59,29.36,5,1,0,0.00
2013-6-30,86,76,72,85,7,-34,98,31,1,29.80,29.57,5,0,0,0.01
2013-7-1,80,77,76,-29,-31,-32,1,1,1,29.94,29.78,5,1,0,1.24
2013-7-2,87,79,75,86,18,-31,98,40,1,30.07,29.94,5,1,0,0.01
2013-7-3,88,79,74,88,29,-32,98,49,1,30.14,30.05,5,1,0,0.00
2013-7-4,93,83,76,92,39,-31,98,57,1,30.14,30.02,7,1,0,0.00
2013-7-5,95,83,74,92,54,-32,98,67,2,30.10,29.95,6,1,0,0.00
2013-7-6,95,82,75,92,74,-4,98,84,4,30.03,29.90,7,0,0,0.00
2013-7-7,100,85,75,94,68,-32,98,75,14,29.95,29.79,4,0,0,0.00
2013-7-8,94,80,71,88,78,70,98,92,64,29.92,29.82,6,1,0,0.00
2013-7-9,92,79,69,90,58,-35,98,76,1,29.96,29.87,2,0,0,0.00
2013-7-10,87,80,74,86,37,-32,98,59,38,29.91,29.67,4,0,0,0.22
2013-7-11,87,78,71,85,30,-32,98,53,7,29.82,29.67,3,0,0,0.15
2013-7-12,79,72,66,79,71,47,98,97,50,30.02,29.80,8,2,0,0.07
2013-7-13,81,74,66,81,11,-38,98,37,1,30.18,30.01,2,0,0,0.10
2013-7-14,94,84,77,91,35,-30,98,52,1,30.21,30.10,2,0,0,0.00
2013-7-15,93,83,74,91,79,48,98,90,39,30.12,30.01,5,0,0,0.00
2013-7-16,94,83,74,88,77,70,98,84,49,30.08,30.01,6,1,0,0.00
2013-7-17,99,84,72,90,75,18,98,78,10,30.10,29.93,2,0,0,0.00
2013-7-18,100,86,76,90,55,-31,98,62,2,29.96,29.84,4,0,0,0.14
2013-7-19,99,87,77,91,81,61,98,83,55,29.85,29.65,7,1,0,0.00
2013-7-20,96,84,75,90,81,74,98,92,53,29.72,29.59,6,1,0,0.00
2013-7-21,90,78,69,83,74,67,98,89,57,29.86,29.72,4,0,0,0.00
2013-7-22,86,77,71,86,25,-34,98,48,1,29.86,29.71,3,0,0,0.22
2013-7-23,92,81,76,91,22,-32,98,45,1,29.71,29.42,7,0,0,2.36
2013-7-24,85,76,63,82,24,-32,98,50,20,29.82,29.47,4,1,0,0.00
2013-7-25,64,62,59,64,61,50,98,97,66,29.95,29.81,7,0,0,0.02
2013-7-26,86,70,62,77,42,-39,98,65,1,29.92,29.85,7,1,0,0.05
2013-7-27,88,75,67,76,27,-36,98,42,16,29.94,29.85,2,0,0,0.00
2013-7-28,81,74,69,80,19,-36,98,45,4,29.90,29.82,2,0,0,0.05
2013-7-29,88,77,65,76,17,-33,98,35,48,29.97,29.83,4,0,0,0.02
2013-7-30,85,71,58,72,62,44,99,77,45,30.03,29.96,5,0,0,0.00
2013-7-31,86,72,60,73,56,-39,98,69,1,30.04,29.92,2,0,0,0.00
2013-8-1,79,70,65,77,7,-37,98,35,2,29.94,29.71,2,0,0,0.50
2013-8-2,87,76,68,77,19,-35,98,38,25,29.78,29.65,3,0,0,0.07
2013-8-3,82,71,65,76,40,-36,98,64,1,29.79,29.70,3,0,0,0.14
2013-8-4,84,69,62,72,19,-39,99,42,1,29.83,29.70,12,0,0,0.00
2013-8-5,82,65,55,62,50,-1,98,64,8,29.93,29.82,11,0,0,0.00
2013-8-6,83,69,56,69,61,53,98,79,43,30.03,29.92,0,0,0,0.00
2013-8-7,83,71,62,76,44,-40,98,64,8,30.04,29.96,2,0,0,0.00
2013-8-8,84,75,71,83,17,-34,98,39,11,29.97,29.89,2,0,0,0.04
2013-8-9,85,78,74,84,-15,-32,98,12,1,29.91,29.66,7,1,0,0.44
2013-8-10,86,76,63,68,20,-35,98,36,1,29.93,29.72,4,0,0,0.00
2013-8-11,84,69,56,69,58,41,98,71,46,30.00,29.90,3,0,0,0.00
2013-8-12,86,73,66,70,41,-37,98,52,2,29.94,29.80,4,0,0,0.00
2013-8-13,79,73,69,76,-7,-36,98,20,1,29.82,29.56,2,0,0,0.14
2013-8-14,76,66,57,58,27,-39,75,42,1,29.76,29.61,6,1,0,0.00
2013-8-15,82,71,60,62,56,50,96,62,38,30.02,29.93,3,0,0,0.00
2013-8-16,84,68,55,66,46,-42,98,61,1,30.09,30.00,1,0,0,0.00
2013-8-17,84,69,58,69,54,-40,98,68,23,30.17,30.09,2,0,0,0.00
2013-8-18,80,68,61,71,47,-39,98,68,13,30.16,30.00,0,0,0,0.00
2013-8-19,80,69,62,75,8,-40,98,31,4,30.01,29.89,0,0,0,0.02
2013-8-20,88,75,65,71,19,-38,98,35,38,30.01,29.91,2,0,0,0.01
2013-8-21,91,77,66,74,31,-37,98,41,9,30.06,29.91,2,0,0,0.00
2013-8-22,80,75,70,69,-11,-35,76,13,1,29.96,29.74,3,0,0,0.52
2013-8-23,80,73,66,64,28,-36,82,41,1,29.98,29.73,11,1,0,0.00
2013-8-24,81,67,58,63,56,53,98,71,43,30.23,30.01,5,0,0,0.00
2013-8-25,86,70,57,63,32,-42,98,43,1,30.27,30.09,3,0,0,0.00
2013-8-26,80,73,64,76,42,-34,98,58,3,30.11,29.77,2,0,0,0.21
2013-8-27,85,77,71,76,21,-34,98,36,4,29.80,29.70,14,1,0,0.00
2013-8-28,88,77,70,74,16,-34,88,32,1,29.79,29.71,0,0,0,0.00
2013-8-29,80,74,68,74,59,-33,92,65,1,29.92,29.75,0,0,0,0.00
2013-8-30,86,78,72,75,44,-33,98,52,16,29.83,29.72,6,1,0,0.00
2013-8-31,86,80,73,77,34,-33,88,45,2,29.73,29.66,3,0,0,0.00
2013-9-1,85,80,76,82,23,-31,98,33,1,29.74,29.66,2,0,0,0.00
2013-9-2,86,78,72,80,-10,-33,95,12,1,29.70,29.56,2,0,0,0.84
2013-9-3,81,72,62,68,41,-32,98,59,1,29.75,29.60,4,0,0,0.00
2013-9-4,84,73,62,64,61,47,86,66,45,29.84,29.76,2,0,0,0.00
2013-9-5,75,67,57,60,47,-39,70,54,45,30.02,29.79,11,1,0,0.00
2013-9-6,73,62,52,52,48,44,84,62,41,30.12,30.00,5,0,0,0.00
2013-9-7,80,71,52,59,54,32,81,57,39,30.01,29.77,8,0,0,0.00
2013-9-8,79,68,57,65,55,40,79,62,39,29.96,29.66,11,1,0,0.00
2013-9-9,73,62,47,56,53,44,88,74,49,30.07,29.95,3,0,0,0.00
2013-9-10,84,78,73,74,24,-33,81,36,10,30.04,29.91,3,0,0,0.00
2013-9-11,96,85,76,79,68,-31,79,62,32,29.97,29.85,3,0,0,0.00
2013-9-12,76,76,76,61,61,61,59,59,59,29.86,29.85,0,0,0,0.00